Time;durP1;ratioP1;P1;durP2;ratioP2;P2;SDS_P1;SDS_P2;PMS_P1;PMS_P2;Temp;Humidity;BMP_temperature;BMP_pressure;BME280_temperature;BME280_humidity;BME280_pressure;Samples;Min_cycle;Max_cycle;Signal;HPM_P1;HPM_P2
2021/11/19 00:02:14;;;;;;;62.00;38.40;;;;;;;5.77;55.45;101140.41;117333;1186;21856;-58
2021/11/19 00:04:42;;;;;;;66.90;41.10;;;;;;;5.79;55.44;101141.15;117343;1185;22146;-58
2021/11/19 00:07:11;;;;;;;64.60;39.50;;;;;;;5.79;55.46;101145.35;117344;1180;21855;-58
2021/11/19 00:09:40;;;;;;;65.60;39.70;;;;;;;5.82;55.66;101143.13;117437;1185;23580;-58
2021/11/19 00:12:09;;;;;;;62.80;38.20;;;;;;;5.88;55.55;101139.23;117193;1184;23621;-59
2021/11/19 00:14:37;;;;;;;62.20;36.10;;;;;;;5.91;55.48;101129.54;117389;1185;23661;-59
2021/11/19 00:17:08;;;;;;;60.60;35.70;;;;;;;5.91;55.57;101127.29;117374;1185;22016;-58
2021/11/19 00:19:37;;;;;;;;;;;;;;;5.89;55.64;101125.15;117409;1185;21851;-58
2021/11/19 00:22:06;;;;;;;64.20;37.60;;;;;;;5.91;55.76;101117.00;117426;1184;21855;-58
2021/11/19 00:24:35;;;;;;;59.20;36.00;;;;;;;5.92;55.51;101110.23;117389;1186;23322;-58
2021/11/19 00:27:05;;;;;;;64.50;36.30;;;;;;;5.93;55.46;101107.13;117424;1186;21868;-58
2021/11/19 00:29:33;;;;;;;57.70;34.50;;;;;;;5.95;55.68;101111.34;117418;1185;23487;-58
2021/11/19 00:32:02;;;;;;;59.40;35.20;;;;;;;5.98;55.73;101118.67;117417;1182;21865;-59
2021/11/19 00:34:31;;;;;;;64.90;38.50;;;;;;;6.00;55.68;101119.94;117379;1185;21860;-59
2021/11/19 00:37:00;;;;;;;62.90;36.20;;;;;;;6.00;55.60;101117.90;117454;1183;21908;-59
2021/11/19 00:39:28;;;;;;;57.40;35.90;;;;;;;6.01;55.48;101117.92;117406;1184;21978;-59
2021/11/19 00:41:57;;;;;;;56.70;35.30;;;;;;;6.02;55.66;101112.17;117257;1184;21848;-59
2021/11/19 00:44:26;;;;;;;62.50;39.40;;;;;;;6.02;55.56;101116.19;117366;1185;21974;-58
2021/11/19 00:46:55;;;;;;;64.50;39.40;;;;;;;6.01;55.72;101114.09;117360;1185;21848;-58
2021/11/19 00:49:27;;;;;;;70.70;39.40;;;;;;;6.01;55.42;101118.45;117420;1183;21904;-58
2021/11/19 00:51:55;;;;;;;65.30;39.20;;;;;;;6.02;55.38;101116.56;117382;1183;24166;-59
2021/11/19 00:54:25;;;;;;;61.50;37.50;;;;;;;6.04;55.57;101116.77;117430;1185;23561;-59
2021/11/19 00:56:56;;;;;;;63.20;38.50;;;;;;;6.05;56.02;101115.73;117402;1183;21861;-59
2021/11/19 00:59:27;;;;;;;62.20;36.60;;;;;;;6.09;55.68;101112.84;117368;1183;22661;-59
2021/11/19 01:01:59;;;;;;;;;;;;;;;6.11;55.76;101107.48;117311;1185;21841;-60
2021/11/19 01:04:28;;;;;;;65.60;39.30;;;;;;;6.13;55.65;101104.02;117253;1186;22650;-58
2021/11/19 01:06:57;;;;;;;63.40;39.00;;;;;;;6.15;55.79;101100.75;117404;1182;22732;-57
2021/11/19 01:09:29;;;;;;;64.30;39.70;;;;;;;6.17;55.71;101103.05;117345;1181;23000;-58
2021/11/19 01:11:58;;;;;;;71.80;42.20;;;;;;;6.20;55.85;101100.46;117333;1186;21860;-58
2021/11/19 01:14:39;;;;;;;63.70;37.10;;;;;;;6.22;55.59;101104.00;117392;1185;21856;-59
2021/11/19 01:17:20;;;;;;;67.80;38.60;;;;;;;6.23;55.62;101103.33;117351;1185;22909;-59
2021/11/19 01:19:50;;;;;;;65.20;39.20;;;;;;;6.25;55.72;101103.34;117418;1186;21866;-59
2021/11/19 01:22:21;;;;;;;69.60;41.30;;;;;;;6.26;55.64;101109.48;117399;1186;21868;-59
2021/11/19 01:24:49;;;;;;;68.00;39.10;;;;;;;6.27;55.55;101114.36;117424;1185;23463;-59
2021/11/19 01:27:17;;;;;;;64.40;38.70;;;;;;;6.29;55.64;101107.95;117472;1188;21857;-60
2021/11/19 01:29:47;;;;;;;64.20;38.60;;;;;;;6.32;55.46;101101.55;117385;1183;23069;-60
2021/11/19 01:32:18;;;;;;;62.00;37.20;;;;;;;6.34;55.35;101098.97;117397;1185;21853;-60
2021/11/19 01:34:46;;;;;;;64.80;38.30;;;;;;;6.37;55.85;101095.54;117368;1182;23276;-60
2021/11/19 01:37:15;;;;;;;59.40;37.00;;;;;;;6.39;55.30;101093.14;117403;1186;21857;-59
2021/11/19 01:39:47;;;;;;;64.80;38.80;;;;;;;6.41;55.42;101092.98;117305;1185;21863;-60
2021/11/19 01:42:32;;;;;;;66.00;38.20;;;;;;;6.41;55.29;101091.59;117325;1185;23570;-60
2021/11/19 01:45:07;;;;;;;60.00;36.30;;;;;;;6.42;55.57;101089.15;117253;1186;22954;-60
2021/11/19 01:47:37;;;;;;;65.50;38.00;;;;;;;6.41;55.42;101087.39;117360;1183;21868;-60
2021/11/19 01:50:09;;;;;;;64.80;39.20;;;;;;;6.39;55.51;101090.17;117430;1186;21857;-60
2021/11/19 01:52:41;;;;;;;64.30;37.70;;;;;;;6.37;55.55;101090.13;117407;1184;24184;-60
2021/11/19 01:55:15;;;;;;;66.90;38.30;;;;;;;6.35;55.20;101090.45;117459;1185;22733;-60
2021/11/19 01:57:52;;;;;;;57.00;35.60;;;;;;;6.34;55.69;101089.04;117368;1183;23828;-60
2021/11/19 02:00:29;;;;;;;65.40;40.30;;;;;;;6.34;55.66;101088.69;117256;1186;21857;-60
2021/11/19 02:02:59;;;;;;;62.10;38.30;;;;;;;6.32;55.53;101090.21;117366;1186;22961;-60
2021/11/19 02:05:33;;;;;;;60.40;35.80;;;;;;;6.31;55.52;101090.20;117310;1186;21933;-60
2021/11/19 02:08:16;;;;;;;66.30;37.10;;;;;;;6.29;55.56;101087.21;117423;1186;23662;-57
2021/11/19 02:11:16;;;;;;;69.90;40.40;;;;;;;6.25;55.50;101083.30;117398;1185;22918;-60
2021/11/19 02:14:07;;;;;;;59.70;37.90;;;;;;;6.24;55.45;101085.91;117399;1185;21941;-59
2021/11/19 02:16:40;;;;;;;66.50;39.20;;;;;;;6.24;55.47;101085.20;117413;1183;21858;-59
2021/11/19 02:19:31;;;;;;;71.00;41.30;;;;;;;6.23;55.45;101079.27;117291;1185;23436;-60
2021/11/19 02:22:13;;;;;;;68.90;41.20;;;;;;;6.24;55.33;101080.14;117192;1186;22904;-59
2021/11/19 02:24:50;;;;;;;75.90;42.80;;;;;;;6.22;55.24;101082.21;117261;1186;21851;-59
2021/11/19 02:27:20;;;;;;;69.40;40.10;;;;;;;6.22;55.72;101081.69;117414;1184;21857;-59
2021/11/19 02:29:56;;;;;;;76.90;42.60;;;;;;;6.21;55.30;101079.59;117357;1186;21867;-59
2021/11/19 02:32:34;;;;;;;66.00;39.50;;;;;;;6.21;56.02;101076.97;117389;1185;23536;-58
2021/11/19 02:35:03;;;;;;;67.20;38.90;;;;;;;6.20;55.29;101072.59;117342;1182;23563;-58
2021/11/19 02:37:44;;;;;;;68.50;41.80;;;;;;;6.18;55.40;101072.20;117373;1184;21857;-58
2021/11/19 02:40:17;;;;;;;80.20;45.20;;;;;;;6.14;55.51;101070.94;117275;1183;21871;-59
2021/11/19 02:43:07;;;;;;;75.40;42.80;;;;;;;6.09;55.50;101070.14;117431;1185;21861;-58
2021/11/19 02:45:38;;;;;;;73.40;41.20;;;;;;;6.03;55.25;101075.62;117373;1186;23542;-59
2021/11/19 02:48:09;;;;;;;61.40;37.40;;;;;;;5.98;55.59;101077.41;117398;1186;22973;-59
2021/11/19 02:50:37;;;;;;;81.30;44.70;;;;;;;5.94;55.55;101080.65;117283;1184;21857;-59
2021/11/19 02:53:06;;;;;;;74.90;44.80;;;;;;;5.89;55.51;101082.30;117322;1185;22840;-59
2021/11/19 02:55:40;;;;;;;72.10;42.40;;;;;;;5.84;55.58;101080.28;117395;1184;21860;-59
2021/11/19 02:58:10;;;;;;;72.10;41.60;;;;;;;5.76;55.37;101078.39;117299;1185;21848;-60
2021/11/19 03:00:51;;;;;;;70.20;42.60;;;;;;;5.71;55.48;101074.83;117427;1180;21871;-59
2021/11/19 03:03:19;;;;;;;75.30;42.60;;;;;;;5.66;55.29;101071.61;117438;1185;21898;-59
2021/11/19 03:05:48;;;;;;;75.00;44.00;;;;;;;5.61;55.26;101066.46;117484;1183;23473;-58
2021/11/19 03:08:17;;;;;;;71.00;42.20;;;;;;;5.57;55.06;101065.17;117418;1185;21858;-58
2021/11/19 03:10:47;;;;;;;70.30;41.40;;;;;;;5.53;55.49;101067.87;117175;1186;23466;-58
2021/11/19 03:13:16;;;;;;;76.90;42.90;;;;;;;5.51;55.28;101070.27;117352;1186;21866;-59
2021/11/19 03:15:46;;;;;;;67.70;41.00;;;;;;;5.48;55.38;101068.14;117341;1185;21877;-59
2021/11/19 03:18:14;;;;;;;66.90;40.00;;;;;;;5.45;55.08;101068.60;117344;1185;21893;-59
2021/11/19 03:20:44;;;;;;;74.20;42.50;;;;;;;5.40;55.23;101068.85;117372;1185;23583;-58
2021/11/19 03:23:12;;;;;;;72.30;42.20;;;;;;;5.34;55.33;101070.11;117382;1185;23540;-60
2021/11/19 03:25:41;;;;;;;72.30;41.80;;;;;;;5.29;55.26;101077.68;117338;1185;21903;-59
2021/11/19 03:28:11;;;;;;;79.30;43.60;;;;;;;5.22;55.41;101075.79;117370;1186;21845;-58
2021/11/19 03:30:40;;;;;;;78.60;45.00;;;;;;;5.14;55.09;101071.80;117416;1185;21858;-58
2021/11/19 03:33:09;;;;;;;88.20;46.70;;;;;;;5.08;55.37;101068.89;117414;1184;22020;-59
2021/11/19 03:35:37;;;;;;;79.90;44.60;;;;;;;5.04;55.14;101066.73;117428;1184;23463;-58
2021/11/19 03:38:06;;;;;;;81.80;46.10;;;;;;;5.03;55.37;101068.80;117287;1183;22322;-58
2021/11/19 03:40:37;;;;;;;83.00;48.30;;;;;;;5.04;55.57;101068.64;117407;1183;22009;-58
2021/11/19 03:43:23;;;;;;;80.40;45.30;;;;;;;5.07;55.60;101069.91;117403;1186;22950;-58
2021/11/19 03:45:54;;;;;;;85.20;46.90;;;;;;;5.14;55.41;101068.48;117301;1189;22327;-61
2021/11/19 03:48:23;;;;;;;86.20;47.70;;;;;;;5.20;55.56;101063.40;117496;1183;21860;-59
2021/11/19 03:50:57;;;;;;;80.70;48.00;;;;;;;5.26;55.76;101065.77;117419;1185;21901;-59
2021/11/19 03:53:26;;;;;;;101.40;53.50;;;;;;;5.31;55.69;101063.95;117348;1185;21909;-59
2021/11/19 03:55:55;;;;;;;93.90;52.40;;;;;;;5.33;55.51;101059.48;117347;1186;21974;-59
2021/11/19 03:58:27;;;;;;;87.10;46.60;;;;;;;5.38;55.74;101058.88;117382;1185;21870;-60
2021/11/19 04:00:59;;;;;;;84.90;48.00;;;;;;;5.43;55.61;101061.75;117349;1185;24142;-58
2021/11/19 04:03:28;;;;;;;96.60;51.50;;;;;;;5.47;55.68;101066.04;117392;1182;21855;-59
2021/11/19 04:05:56;;;;;;;92.60;51.50;;;;;;;5.52;55.65;101064.20;117324;1184;21882;-58
2021/11/19 04:08:30;;;;;;;97.90;52.60;;;;;;;5.56;56.05;101055.21;117407;1188;21858;-60
2021/11/19 04:10:58;;;;;;;95.50;54.40;;;;;;;5.60;55.85;101055.46;117352;1184;21857;-60
2021/11/19 04:13:27;;;;;;;88.90;49.90;;;;;;;5.63;55.71;101055.36;117384;1180;21881;-60
2021/11/19 04:15:58;;;;;;;83.30;46.50;;;;;;;5.66;55.83;101054.53;117407;1185;21860;-59
2021/11/19 04:18:26;;;;;;;92.10;49.60;;;;;;;5.69;55.77;101055.29;117321;1186;21905;-59
2021/11/19 04:20:55;;;;;;;92.80;50.60;;;;;;;5.70;55.74;101057.41;117368;1185;21914;-59
2021/11/19 04:23:24;;;;;;;89.20;48.80;;;;;;;5.71;55.82;101054.63;117382;1186;23000;-59
2021/11/19 04:25:53;;;;;;;85.40;48.60;;;;;;;5.72;55.93;101050.46;117411;1183;21860;-61
2021/11/19 04:28:21;;;;;;;74.60;43.40;;;;;;;5.72;55.73;101053.25;117482;1186;21883;-59
2021/11/19 04:30:51;;;;;;;82.00;44.20;;;;;;;5.71;55.96;101053.42;117260;1185;22657;-59
2021/11/19 04:33:19;;;;;;;92.40;48.80;;;;;;;5.70;55.61;101050.95;117393;1182;23648;-60
2021/11/19 04:35:48;;;;;;;86.50;48.80;;;;;;;5.69;55.82;101053.56;117364;1185;21897;-59
2021/11/19 04:38:16;;;;;;;93.10;51.50;;;;;;;5.70;55.67;101056.00;117465;1180;21859;-60
2021/11/19 04:40:45;;;;;;;94.20;52.60;;;;;;;5.70;55.84;101056.88;117432;1184;22921;-59
2021/11/19 04:43:15;;;;;;;92.30;49.20;;;;;;;5.69;55.79;101053.55;117316;1182;22921;-59
2021/11/19 04:45:45;;;;;;;98.80;53.30;;;;;;;5.67;55.52;101051.61;117453;1183;21891;-60
2021/11/19 04:48:14;;;;;;;86.00;48.00;;;;;;;5.66;55.61;101051.94;117323;1185;22974;-59
2021/11/19 04:50:44;;;;;;;81.70;47.10;;;;;;;5.64;55.49;101049.98;117408;1185;21848;-60
2021/11/19 04:53:14;;;;;;;81.90;48.10;;;;;;;5.63;55.60;101053.96;117352;1186;21861;-57
2021/11/19 04:55:42;;;;;;;85.50;48.40;;;;;;;5.61;55.34;101054.80;117358;1185;21859;-57
2021/11/19 04:58:11;;;;;;;90.50;50.00;;;;;;;5.60;55.61;101055.64;117270;1186;21856;-57
2021/11/19 05:00:48;;;;;;;93.80;50.10;;;;;;;5.57;55.59;101055.77;117316;1181;23613;-58
2021/11/19 05:03:17;;;;;;;92.20;49.60;;;;;;;5.54;55.49;101060.05;117337;1183;21847;-57
2021/11/19 05:05:46;;;;;;;87.00;47.70;;;;;;;5.48;55.76;101058.04;117488;1183;21863;-58
2021/11/19 05:08:14;;;;;;;89.10;50.70;;;;;;;5.45;55.72;101066.33;117502;1184;21861;-58
2021/11/19 05:10:43;;;;;;;90.00;50.70;;;;;;;5.42;55.56;101066.10;117347;1185;21889;-58
2021/11/19 05:13:12;;;;;;;;;;;;;;;5.41;55.64;101066.95;117586;1182;23579;-57
2021/11/19 05:15:43;;;;;;;87.50;49.30;;;;;;;5.43;55.85;101068.03;117859;1183;22368;-58
2021/11/19 05:18:11;;;;;;;82.70;45.10;;;;;;;5.43;55.78;101068.73;117451;1185;22164;-58
2021/11/19 05:20:39;;;;;;;90.10;51.30;;;;;;;5.44;55.64;101066.65;117443;1185;21861;-58
2021/11/19 05:23:08;;;;;;;92.50;47.10;;;;;;;5.45;55.71;101068.08;117361;1185;21883;-58
2021/11/19 05:25:39;;;;;;;101.10;51.80;;;;;;;5.47;55.74;101065.48;117308;1186;21967;-57
2021/11/19 05:28:08;;;;;;;92.80;52.20;;;;;;;5.55;55.59;101060.59;117336;1185;23012;-58
2021/11/19 05:30:37;;;;;;;85.30;46.30;;;;;;;5.49;55.65;101064.67;117386;1185;22015;-59
2021/11/19 05:33:06;;;;;;;84.70;45.90;;;;;;;5.41;55.98;101064.16;117374;1185;21856;-58
2021/11/19 05:35:34;;;;;;;82.40;46.20;;;;;;;5.36;55.87;101062.67;117380;1185;22914;-57
2021/11/19 05:38:03;;;;;;;85.10;46.60;;;;;;;5.33;55.73;101063.98;117442;1186;22446;-58
2021/11/19 05:40:32;;;;;;;82.30;46.30;;;;;;;5.29;55.85;101062.17;117372;1183;22160;-57
2021/11/19 05:43:04;;;;;;;85.00;47.40;;;;;;;5.23;55.61;101063.11;117360;1183;23666;-57
2021/11/19 05:45:33;;;;;;;86.50;45.20;;;;;;;5.17;55.74;101068.36;117208;1186;21905;-58
2021/11/19 05:48:02;;;;;;;82.40;45.50;;;;;;;5.11;55.90;101072.25;117361;1182;23440;-58
2021/11/19 05:50:31;;;;;;;80.40;44.30;;;;;;;5.05;55.67;101066.75;117231;1186;21867;-58
2021/11/19 05:53:01;;;;;;;82.50;45.10;;;;;;;5.00;55.65;101064.90;117399;1184;23448;-57
2021/11/19 05:55:32;;;;;;;77.90;43.30;;;;;;;4.96;55.57;101070.89;117385;1185;22730;-57
2021/11/19 05:58:00;;;;;;;79.90;44.70;;;;;;;4.89;55.70;101077.86;117382;1186;22813;-57
2021/11/19 06:00:35;;;;;;;77.30;45.30;;;;;;;4.84;55.61;101072.20;117489;1180;21863;-57
2021/11/19 06:03:03;;;;;;;85.40;47.70;;;;;;;4.82;55.80;101075.80;117427;1184;21886;-58
2021/11/19 06:05:32;;;;;;;83.70;45.90;;;;;;;4.83;55.71;101072.52;117457;1185;23595;-57
2021/11/19 06:08:01;;;;;;;81.50;46.80;;;;;;;4.85;55.81;101075.86;117355;1183;21900;-60
2021/11/19 06:10:31;;;;;;;84.80;46.50;;;;;;;4.87;55.74;101074.69;117392;1185;24145;-56
2021/11/19 06:13:10;;;;;;;87.20;45.90;;;;;;;4.92;55.98;101068.20;117369;1182;23293;-57
2021/11/19 06:15:43;;;;;;;78.70;44.40;;;;;;;4.99;55.96;101066.77;119181;1182;21868;-58
2021/11/19 06:18:17;;;;;;;101.40;51.70;;;;;;;5.06;55.83;101062.41;117408;1182;21856;-58
2021/11/19 06:20:47;;;;;;;105.60;56.80;;;;;;;5.16;56.00;101066.27;117348;1185;23800;-57
2021/11/19 06:23:21;;;;;;;88.80;52.00;;;;;;;5.25;55.85;101065.92;117451;1185;21874;-58
2021/11/19 06:25:50;;;;;;;93.30;51.80;;;;;;;5.35;56.28;101067.17;117335;1186;22067;-57
2021/11/19 06:28:22;;;;;;;92.70;52.40;;;;;;;5.45;56.25;101069.82;117345;1186;23567;-58
2021/11/19 06:30:50;;;;;;;108.80;55.80;;;;;;;5.55;56.21;101071.91;117203;1186;23459;-57
2021/11/19 06:33:19;;;;;;;101.60;51.90;;;;;;;5.64;56.10;101069.48;117341;1185;21864;-57
2021/11/19 06:35:48;;;;;;;105.90;53.90;;;;;;;5.73;56.19;101069.47;117314;1185;23567;-60
2021/11/19 06:38:16;;;;;;;101.10;53.10;;;;;;;5.82;56.30;101065.29;117340;1186;21848;-58
2021/11/19 06:40:45;;;;;;;94.70;51.10;;;;;;;5.94;56.24;101063.91;117215;1186;22226;-57
2021/11/19 06:43:14;;;;;;;93.10;49.90;;;;;;;6.03;56.30;101052.95;117406;1185;21881;-57
2021/11/19 06:45:43;;;;;;;88.40;50.20;;;;;;;6.14;56.36;101049.84;117328;1183;21863;-57
2021/11/19 06:48:12;;;;;;;87.80;48.50;;;;;;;6.26;56.29;101050.55;117363;1183;22725;-59
2021/11/19 06:50:42;;;;;;;75.10;43.90;;;;;;;6.36;56.31;101047.23;117401;1185;23671;-59
2021/11/19 06:53:12;;;;;;;87.60;46.00;;;;;;;6.46;56.54;101046.68;117433;1183;23458;-59
2021/11/19 06:55:40;;;;;;;79.60;44.30;;;;;;;6.57;56.36;101042.50;117423;1182;22633;-58
2021/11/19 06:58:08;;;;;;;76.00;45.40;;;;;;;6.68;56.38;101044.05;117395;1182;23485;-58
2021/11/19 07:00:40;;;;;;;82.40;47.40;;;;;;;6.78;56.42;101038.27;117374;1183;24180;-59
2021/11/19 07:03:09;;;;;;;72.80;43.30;;;;;;;6.89;56.30;101038.75;117262;1186;21870;-59
2021/11/19 07:05:38;;;;;;;78.40;44.60;;;;;;;7.00;56.53;101036.10;117195;1186;21847;-58
2021/11/19 07:08:07;;;;;;;76.90;43.20;;;;;;;7.12;56.56;101034.86;117399;1185;23552;-58
2021/11/19 07:10:38;;;;;;;73.20;42.80;;;;;;;7.22;56.78;101030.27;117242;1186;23541;-59
2021/11/19 07:13:06;;;;;;;70.80;39.90;;;;;;;7.33;56.90;101024.63;117243;1188;21860;-59
2021/11/19 07:15:35;;;;;;;64.90;38.70;;;;;;;7.46;56.66;101023.55;117271;1186;23530;-59
2021/11/19 07:18:04;;;;;;;68.20;40.40;;;;;;;7.56;56.60;101017.02;117380;1183;21899;-59
2021/11/19 07:20:33;;;;;;;67.40;40.10;;;;;;;7.65;56.93;101017.47;117340;1185;24206;-59
2021/11/19 07:23:12;;;;;;;76.30;42.50;;;;;;;7.75;56.54;101016.17;117311;1183;21858;-58
2021/11/19 07:25:40;;;;;;;73.40;42.40;;;;;;;7.85;56.80;101015.91;117399;1183;23463;-59
2021/11/19 07:28:10;;;;;;;57.20;35.40;;;;;;;7.94;56.66;101015.64;117309;1183;23472;-60
2021/11/19 07:30:47;;;;;;;60.10;37.80;;;;;;;8.02;56.69;101013.41;117370;1185;23354;-58
2021/11/19 07:33:15;;;;;;;59.40;38.20;;;;;;;8.08;56.53;101010.16;117340;1185;23689;-59
2021/11/19 07:35:43;;;;;;;63.90;38.40;;;;;;;8.16;56.66;101009.35;117437;1189;21851;-59
2021/11/19 07:38:12;;;;;;;59.10;35.60;;;;;;;8.23;56.70;101009.57;117327;1185;21988;-58
2021/11/19 07:40:42;;;;;;;60.60;36.00;;;;;;;8.32;56.80;101008.08;117358;1185;23541;-59
2021/11/19 07:43:10;;;;;;;65.90;38.00;;;;;;;8.41;56.84;101004.98;117356;1182;23480;-59
2021/11/19 07:45:39;;;;;;;66.90;40.10;;;;;;;8.55;56.89;101002.12;117358;1185;21861;-59
2021/11/19 07:48:11;;;;;;;60.40;36.40;;;;;;;8.67;56.88;101001.50;117365;1186;21863;-58
2021/11/19 07:50:41;;;;;;;51.00;33.50;;;;;;;8.78;56.99;101002.96;117309;1182;21849;-59
2021/11/19 07:53:10;;;;;;;49.80;32.40;;;;;;;8.91;57.02;101000.73;117367;1185;21854;-57
2021/11/19 07:55:38;;;;;;;58.50;35.10;;;;;;;9.03;56.96;101001.31;117448;1182;23566;-57
2021/11/19 07:58:06;;;;;;;60.50;33.80;;;;;;;9.13;56.78;101003.27;117399;1182;23435;-59
2021/11/19 08:00:36;;;;;;;46.30;30.70;;;;;;;9.20;56.77;101003.49;117488;1185;21868;-58
2021/11/19 08:03:04;;;;;;;59.30;34.20;;;;;;;9.29;56.81;101005.27;117423;1186;23437;-58
2021/11/19 08:05:32;;;;;;;53.10;33.70;;;;;;;9.40;56.83;101007.92;117448;1182;21857;-57
2021/11/19 08:08:01;;;;;;;52.50;33.40;;;;;;;9.52;56.89;101007.93;117378;1186;21856;-58
2021/11/19 08:10:30;;;;;;;52.00;31.90;;;;;;;9.63;56.93;100999.56;117451;1182;24175;-58
2021/11/19 08:12:59;;;;;;;55.10;34.30;;;;;;;9.72;56.92;100995.88;117400;1186;23457;-58
2021/11/19 08:15:29;;;;;;;54.10;32.00;;;;;;;9.82;56.95;100989.59;117559;1183;23458;-58
2021/11/19 08:17:58;;;;;;;51.50;31.00;;;;;;;9.92;56.95;100987.50;117360;1186;21889;-59
2021/11/19 08:20:30;;;;;;;43.80;28.50;;;;;;;10.07;56.99;100981.17;117233;1184;23475;-58
2021/11/19 08:22:59;;;;;;;47.90;30.40;;;;;;;10.15;56.89;100981.52;117446;1186;21848;-59
2021/11/19 08:25:28;;;;;;;52.20;32.30;;;;;;;10.20;56.80;100979.92;117407;1176;21858;-59
2021/11/19 08:27:57;;;;;;;59.30;36.30;;;;;;;10.19;56.61;100976.59;117444;1185;21859;-59
2021/11/19 08:30:31;;;;;;;60.30;33.90;;;;;;;10.15;56.57;100973.80;117361;1183;23445;-58
2021/11/19 08:33:01;;;;;;;79.90;43.10;;;;;;;10.15;56.52;100965.92;117337;1183;23439;-59
2021/11/19 08:35:29;;;;;;;45.80;28.80;;;;;;;10.17;56.43;100949.41;117456;1183;22658;-58
2021/11/19 08:37:57;;;;;;;44.20;27.60;;;;;;;10.14;56.24;100946.81;117343;1186;21919;-58
2021/11/19 08:40:26;;;;;;;48.00;29.80;;;;;;;10.09;56.25;100938.02;117332;1186;21869;-58
2021/11/19 08:42:54;;;;;;;41.60;28.80;;;;;;;10.18;56.54;100934.86;117368;1186;24139;-59
2021/11/19 08:45:23;;;;;;;41.90;25.80;;;;;;;10.32;56.60;100929.93;117361;1185;21954;-59
2021/11/19 08:47:54;;;;;;;;;;;;;;;10.32;56.77;100925.90;117309;1186;23419;-59
2021/11/19 08:50:26;;;;;;;37.30;23.60;;;;;;;10.33;56.62;100917.30;117388;1186;22061;-58
2021/11/19 08:52:55;;;;;;;32.50;22.30;;;;;;;10.34;56.59;100909.05;117421;1185;22901;-59
2021/11/19 08:55:25;;;;;;;35.00;23.40;;;;;;;10.38;56.69;100904.48;117415;1186;21853;-60
2021/11/19 08:57:55;;;;;;;34.50;22.00;;;;;;;10.48;56.71;100900.09;117442;1182;24169;-58
2021/11/19 09:00:28;;;;;;;31.10;19.90;;;;;;;10.56;56.70;100907.78;117294;1186;21858;-59
2021/11/19 09:02:59;;;;;;;30.70;18.40;;;;;;;10.62;56.60;100904.25;117325;1185;22982;-58
2021/11/19 09:05:29;;;;;;;30.70;19.20;;;;;;;10.73;56.83;100905.08;117330;1186;21858;-59
2021/11/19 09:07:57;;;;;;;27.60;18.20;;;;;;;10.90;56.85;100902.36;117420;1185;22456;-59
2021/11/19 09:10:25;;;;;;;33.30;19.00;;;;;;;11.03;56.95;100900.71;117200;1182;23439;-58
2021/11/19 09:12:53;;;;;;;29.30;17.70;;;;;;;11.16;57.01;100899.75;117365;1183;21877;-59
2021/11/19 09:15:22;;;;;;;31.10;20.00;;;;;;;11.27;56.70;100887.20;117372;1186;21908;-59
2021/11/19 09:17:53;;;;;;;28.60;18.30;;;;;;;11.37;56.73;100882.39;117410;1183;21910;-61
2021/11/19 09:20:45;;;;;;;29.30;18.50;;;;;;;11.49;56.80;100878.95;117401;1182;23430;-58
2021/11/19 09:23:18;;;;;;;28.50;19.20;;;;;;;11.60;56.87;100869.02;117301;1186;21902;-58
2021/11/19 09:25:56;;;;;;;24.70;16.70;;;;;;;11.73;56.81;100866.45;117276;1186;21861;-58
2021/11/19 09:28:27;;;;;;;27.40;18.60;;;;;;;11.88;56.92;100864.22;117308;1182;22631;-59
2021/11/19 09:30:56;;;;;;;;;;;;;;;12.00;56.87;100862.16;117242;1186;23623;-59
2021/11/19 09:33:26;;;;;;;24.10;15.90;;;;;;;12.11;56.97;100852.21;117310;1182;21858;-58
2021/11/19 09:35:54;;;;;;;30.00;17.70;;;;;;;12.22;56.86;100849.97;117338;1183;21866;-59
2021/11/19 09:38:23;;;;;;;37.10;21.90;;;;;;;12.24;56.58;100845.03;117272;1186;21870;-58
2021/11/19 09:41:16;;;;;;;34.90;20.50;;;;;;;12.21;56.42;100841.54;117306;1186;21867;-59
2021/11/19 09:44:29;;;;;;;39.20;22.80;;;;;;;12.11;56.33;100840.42;117176;1186;21874;-60
2021/11/19 09:47:24;;;;;;;51.10;25.60;;;;;;;12.02;56.29;100836.83;116927;1186;21861;-59
2021/11/19 09:50:14;;;;;;;43.00;21.00;;;;;;;11.93;56.40;100830.92;117265;1183;21891;-59
2021/11/19 09:53:33;;;;;;;45.10;23.00;;;;;;;11.88;56.12;100827.98;117251;1186;21876;-59
2021/11/19 09:56:17;;;;;;;37.20;21.80;;;;;;;11.78;56.45;100823.50;117218;1186;21856;-60
2021/11/19 09:58:49;;;;;;;60.20;26.50;;;;;;;11.71;56.13;100822.88;117256;1186;23447;-59
2021/11/19 10:01:23;;;;;;;29.00;17.40;;;;;;;11.63;55.99;100819.09;117179;1189;22973;-60
2021/11/19 10:04:13;;;;;;;31.70;18.20;;;;;;;11.62;56.13;100816.10;117315;1183;24165;-61
2021/11/19 10:06:53;;;;;;;36.70;20.50;;;;;;;11.64;56.09;100804.66;117327;1183;21856;-60
2021/11/19 10:09:25;;;;;;;27.90;18.10;;;;;;;11.67;56.31;100803.92;117305;1187;21861;-58
2021/11/19 10:12:20;;;;;;;26.00;13.20;;;;;;;11.74;56.43;100801.74;117321;1185;21869;-58
2021/11/19 10:14:59;;;;;;;23.30;13.10;;;;;;;11.82;56.34;100798.86;117338;1183;22921;-61
2021/11/19 10:17:33;;;;;;;26.00;14.90;;;;;;;11.87;56.30;100795.29;117307;1183;21870;-59
2021/11/19 10:20:09;;;;;;;23.60;13.60;;;;;;;11.93;56.45;100790.29;117293;1183;22913;-60
2021/11/19 10:22:42;;;;;;;24.40;14.20;;;;;;;11.97;56.49;100787.08;117318;1182;24171;-59
2021/11/19 10:25:38;;;;;;;31.90;14.10;;;;;;;11.98;56.44;100784.25;117364;1186;21861;-59
2021/11/19 10:28:16;;;;;;;20.50;12.40;;;;;;;12.03;56.30;100781.06;117343;1186;21931;-59
2021/11/19 10:30:49;;;;;;;20.80;11.40;;;;;;;12.09;56.40;100769.20;117231;1184;22921;-61
2021/11/19 10:33:30;;;;;;;14.80;9.60;;;;;;;12.14;56.38;100771.23;117340;1185;21852;-58
2021/11/19 10:36:26;;;;;;;15.80;9.10;;;;;;;12.10;56.16;100772.55;117248;1182;22775;-59
2021/11/19 10:39:18;;;;;;;21.60;11.20;;;;;;;12.02;56.14;100765.78;117293;1183;23465;-61
2021/11/19 10:41:53;;;;;;;31.40;14.90;;;;;;;12.02;56.09;100764.73;117377;1183;22827;-59
2021/11/19 10:44:49;;;;;;;33.90;16.50;;;;;;;12.05;56.13;100757.11;117347;1183;23438;-60
2021/11/19 10:47:41;;;;;;;40.10;16.40;;;;;;;12.10;56.00;100756.36;117316;1182;22846;-60
2021/11/19 10:50:32;;;;;;;25.80;12.40;;;;;;;12.16;56.15;100748.18;117475;1185;23541;-61
2021/11/19 10:53:33;;;;;;;22.70;12.20;;;;;;;12.20;56.02;100746.02;117339;1176;21887;-61
2021/11/19 10:56:16;;;;;;;19.30;12.00;;;;;;;12.18;56.00;100746.40;117343;1183;24136;-62
2021/11/19 10:58:51;;;;;;;17.80;10.60;;;;;;;12.15;55.79;100738.34;117368;1176;21849;-62
2021/11/19 11:01:46;;;;;;;19.30;9.60;;;;;;;12.12;55.94;100735.05;117395;1185;23603;-61
2021/11/19 11:04:19;;;;;;;17.10;9.60;;;;;;;12.07;55.77;100733.88;117383;1185;21863;-60
2021/11/19 11:06:53;;;;;;;23.60;10.90;;;;;;;12.03;55.99;100736.94;117327;1186;22925;-61
2021/11/19 11:09:23;;;;;;;17.90;10.40;;;;;;;12.03;55.91;100735.51;117287;1184;22325;-60
2021/11/19 11:12:12;;;;;;;14.00;9.20;;;;;;;12.04;55.70;100725.13;117370;1182;22593;-59
2021/11/19 11:14:42;;;;;;;19.90;10.10;;;;;;;12.02;55.77;100716.34;118608;1185;21851;-60
2021/11/19 11:17:22;;;;;;;17.50;8.90;;;;;;;12.01;55.77;100712.14;118618;1182;24136;-61
2021/11/19 11:19:52;;;;;;;14.80;9.90;;;;;;;12.02;55.85;100707.38;117307;1185;23686;-59
2021/11/19 11:22:25;;;;;;;19.90;12.10;;;;;;;12.11;56.00;100706.21;117308;1185;24161;-58
2021/11/19 11:24:56;;;;;;;20.20;11.30;;;;;;;12.25;55.97;100703.55;117312;1185;21867;-59
2021/11/19 11:27:59;;;;;;;19.50;11.90;;;;;;;12.40;56.08;100701.41;117397;1185;21859;-58
2021/11/19 11:30:51;;;;;;;21.90;11.30;;;;;;;12.54;56.13;100697.14;116862;1188;21857;-59
2021/11/19 11:33:30;;;;;;;21.10;12.80;;;;;;;12.55;55.84;100696.44;117398;1183;23446;-58
2021/11/19 11:36:18;;;;;;;16.80;11.00;;;;;;;12.49;55.79;100695.12;117472;1185;21860;-60